LGAVLTBS

Guest
Details From LGAV - Athens Intl Airport Elefterios Venizel
To LTBS - DALAMAN
Flight Number -
Tags generated
Created
Modified
Stats Distance 249 nm / 460 km
Max Altitude 23,500 ft / 7,163 m
Waypoints 6
Social Downloads 0
Likes 0
Share VATSIM

Download

Looking for another format? Having issues loading an existing format? Contact us
Advertisement - Login to hide

Notes

Basic altitude profile: - Ascent Rate: 2500ft/min - Ascent Speed: 250kts - Cruise Altitude: 210ft - Cruise Speed: 180kts - Descent Rate: 1500ft/min - Descent Speed: 250kts

Route

LGAV PIDAX UL995 KOPAR LTBS

ID Type Via Altitude Latitude Longitude Leg Dist Tot Dist Heading (true) Name
O LGAV APT - 0 ft / 0 m 37.93636˚ 23.94447˚ - 0 nm - Athens Intl Airport Elefterios Venizel
PIDAX FIX - 200 ft / 61 m 37.22806˚ 25.51139˚ 85 nm 85 nm 119° / 120° -
AKINA FIX UL995 (AWY-HI) 23,500 ft / 7,163 m 36.98028˚ 26.24861˚ 38 nm 124 nm 113° / 113° -
LURUS FIX UL995 (AWY-HI) 23,500 ft / 7,163 m 36.88917˚ 26.51694˚ 13 nm 138 nm 113° / 113° -
KOPAR FIX UL995 (AWY-HI) 23,500 ft / 7,163 m 36.83028˚ 26.68861˚ 8 nm 147 nm 113° / 113° -
O LTBS APT - 0 ft / 0 m 36.71319˚ 28.79251˚ 101 nm 248 nm 93° / 95° DALAMAN

Altitude Profile

Advertisement - Login to hide

Weather


0- 5 10 15 20 25 30 35+ Temperature / ° C

Clouds and Precipitation
Forecast for 2017-12-15 12:00 UTC. Updated an hour ago

Ground ~20,000 ft ~40,000 ft Winds

LGAV

Details ICAO LGAV (ATH)
Name Athens Intl Airport Elefterios Venizel
Region Greece
Timezone Europe/Athens (UTC+2.0)
Stats Elevation 308 ft / 94 m (AMSL)
Location 37.936357° 23.944470°
Runways 2
Magnetic Variation 4.484° E

METAR

LGAV 150820Z 24011KT 9999 FEW035 17/07 Q1017 RMK NOSIG

Decode

TAF

TAF TAF LGAV 150500Z 1506/1606 VRB05KT 9999 FEW025 BECMG 1509/1511 23012KT BECMG 1518/1520 23012G22KT FEW020 BKN070

Decode

Departure Runways

ID Width Length Bearing (true) Bearing (mag) Surface Threshold Offset Overrun Length
03L 148 ft / 45 m 12,474 ft / 3,802 m 36.51° 32.03° Asphalt 984 ft / 300 m 393 ft / 120 m
03R 148 ft / 45 m 13,131 ft / 4,002 m 36.52° 32.04° Asphalt 984 ft / 300 m 393 ft / 120 m
21L 148 ft / 45 m 13,131 ft / 4,002 m 216.54° 212.06° Asphalt 984 ft / 300 m 393 ft / 120 m
21R 148 ft / 45 m 12,474 ft / 3,802 m 216.53° 212.05° Asphalt 984 ft / 300 m 393 ft / 120 m

LTBS

Details ICAO LTBS (DLM)
Name DALAMAN
Region Turkey
Timezone Europe/Istanbul (UTC+3.0)
Stats Elevation 20 ft / 6 m (AMSL)
Location 36.713189° 28.792513°
Runways 1
Magnetic Variation 4.880° E

METAR

LTBS 150820Z 07005KT 9999 SCT025 BKN080 11/09 Q1020 NOSIG

Decode

TAF

Not found

Destination Runways

ID Width Length Bearing (true) Bearing (mag) Surface Threshold Offset Overrun Length
01 148 ft / 45 m 9,851 ft / 3,003 m 15.24° 10.36° Concrete 0 ft / 0 m 197 ft / 60 m
19 148 ft / 45 m 9,851 ft / 3,003 m 195.25° 190.37° Concrete 0 ft / 0 m 197 ft / 60 m

Popular Alternatives